sensor_id;sensor_type;location;lat;lon;timestamp;temperature;humidity
22696;DHT22;11515;54.326;10.184;2022-11-20T00:00:47;0.30;99.90
22696;DHT22;11515;54.326;10.184;2022-11-20T00:03:13;0.30;99.90
22696;DHT22;11515;54.326;10.184;2022-11-20T00:05:39;0.30;99.90
22696;DHT22;11515;54.326;10.184;2022-11-20T00:08:04;0.30;99.90
22696;DHT22;11515;54.326;10.184;2022-11-20T00:10:30;0.30;99.90
22696;DHT22;11515;54.326;10.184;2022-11-20T00:12:58;0.30;99.90
22696;DHT22;11515;54.326;10.184;2022-11-20T00:15:24;0.30;99.90
22696;DHT22;11515;54.326;10.184;2022-11-20T00:17:49;0.30;99.90
22696;DHT22;11515;54.326;10.184;2022-11-20T00:20:15;0.30;99.90
22696;DHT22;11515;54.326;10.184;2022-11-20T00:22:41;0.30;99.90
22696;DHT22;11515;54.326;10.184;2022-11-20T00:25:07;0.30;99.90
22696;DHT22;11515;54.326;10.184;2022-11-20T00:27:33;0.30;99.90
22696;DHT22;11515;54.326;10.184;2022-11-20T00:29:58;0.30;99.90
22696;DHT22;11515;54.326;10.184;2022-11-20T00:32:24;0.30;99.90
22696;DHT22;11515;54.326;10.184;2022-11-20T00:34:49;0.30;99.90
22696;DHT22;11515;54.326;10.184;2022-11-20T00:37:15;0.30;99.90
22696;DHT22;11515;54.326;10.184;2022-11-20T00:39:41;0.30;99.90
22696;DHT22;11515;54.326;10.184;2022-11-20T00:42:06;0.30;99.90
22696;DHT22;11515;54.326;10.184;2022-11-20T00:44:32;0.30;99.90
22696;DHT22;11515;54.326;10.184;2022-11-20T00:46:57;0.40;99.90
22696;DHT22;11515;54.326;10.184;2022-11-20T00:49:23;0.30;99.90
22696;DHT22;11515;54.326;10.184;2022-11-20T00:51:49;0.30;99.90
22696;DHT22;11515;54.326;10.184;2022-11-20T00:54:14;0.30;99.90
22696;DHT22;11515;54.326;10.184;2022-11-20T00:56:43;0.40;99.90
22696;DHT22;11515;54.326;10.184;2022-11-20T00:59:09;0.40;99.90
22696;DHT22;11515;54.326;10.184;2022-11-20T01:01:36;0.40;99.90
22696;DHT22;11515;54.326;10.184;2022-11-20T01:04:02;0.40;99.90
22696;DHT22;11515;54.326;10.184;2022-11-20T01:06:33;0.40;99.90
22696;DHT22;11515;54.326;10.184;2022-11-20T01:09:09;0.40;99.90
22696;DHT22;11515;54.326;10.184;2022-11-20T01:11:37;0.40;99.90
22696;DHT22;11515;54.326;10.184;2022-11-20T01:14:06;0.50;99.90
22696;DHT22;11515;54.326;10.184;2022-11-20T01:16:40;0.40;99.90
22696;DHT22;11515;54.326;10.184;2022-11-20T01:19:09;0.40;99.90
22696;DHT22;11515;54.326;10.184;2022-11-20T01:21:38;0.50;99.90
22696;DHT22;11515;54.326;10.184;2022-11-20T01:24:05;0.40;99.90
22696;DHT22;11515;54.326;10.184;2022-11-20T01:26:34;0.50;99.90
22696;DHT22;11515;54.326;10.184;2022-11-20T01:29:00;0.50;99.90
22696;DHT22;11515;54.326;10.184;2022-11-20T01:31:29;0.50;99.90
22696;DHT22;11515;54.326;10.184;2022-11-20T01:33:57;0.50;99.90
22696;DHT22;11515;54.326;10.184;2022-11-20T01:36:25;0.50;99.90
22696;DHT22;11515;54.326;10.184;2022-11-20T01:38:59;0.50;99.90
22696;DHT22;11515;54.326;10.184;2022-11-20T01:41:27;0.40;99.90
22696;DHT22;11515;54.326;10.184;2022-11-20T01:44:15;0.40;99.90
22696;DHT22;11515;54.326;10.184;2022-11-20T01:46:57;0.40;99.90
22696;DHT22;11515;54.326;10.184;2022-11-20T01:51:58;0.40;99.90
22696;DHT22;11515;54.326;10.184;2022-11-20T01:54:38;0.40;99.90
22696;DHT22;11515;54.326;10.184;2022-11-20T01:57:06;0.50;99.90
22696;DHT22;11515;54.326;10.184;2022-11-20T01:59:33;0.40;99.90
22696;DHT22;11515;54.326;10.184;2022-11-20T02:02:01;0.50;99.90
22696;DHT22;11515;54.326;10.184;2022-11-20T02:04:27;0.50;99.90
22696;DHT22;11515;54.326;10.184;2022-11-20T02:06:59;0.50;99.90
22696;DHT22;11515;54.326;10.184;2022-11-20T02:09:25;0.40;99.90
22696;DHT22;11515;54.326;10.184;2022-11-20T02:11:52;0.50;99.90
22696;DHT22;11515;54.326;10.184;2022-11-20T02:14:18;0.50;99.90
22696;DHT22;11515;54.326;10.184;2022-11-20T02:16:46;0.40;99.90
22696;DHT22;11515;54.326;10.184;2022-11-20T02:19:32;0.50;99.90
22696;DHT22;11515;54.326;10.184;2022-11-20T02:22:08;0.50;99.90
22696;DHT22;11515;54.326;10.184;2022-11-20T02:24:39;0.50;99.90
22696;DHT22;11515;54.326;10.184;2022-11-20T02:27:09;0.50;99.90
22696;DHT22;11515;54.326;10.184;2022-11-20T02:29:50;0.50;99.90
22696;DHT22;11515;54.326;10.184;2022-11-20T02:32:28;0.50;99.90
22696;DHT22;11515;54.326;10.184;2022-11-20T02:34:54;0.50;99.90
22696;DHT22;11515;54.326;10.184;2022-11-20T02:37:21;0.50;99.90
22696;DHT22;11515;54.326;10.184;2022-11-20T02:39:49;0.40;99.90
22696;DHT22;11515;54.326;10.184;2022-11-20T02:42:15;0.40;99.90
22696;DHT22;11515;54.326;10.184;2022-11-20T02:44:41;0.40;99.90
22696;DHT22;11515;54.326;10.184;2022-11-20T02:47:06;0.40;99.90
22696;DHT22;11515;54.326;10.184;2022-11-20T02:49:32;0.40;99.90
22696;DHT22;11515;54.326;10.184;2022-11-20T02:51:58;0.40;99.90
22696;DHT22;11515;54.326;10.184;2022-11-20T02:54:25;0.40;99.90
22696;DHT22;11515;54.326;10.184;2022-11-20T02:56:51;0.40;99.90
22696;DHT22;11515;54.326;10.184;2022-11-20T02:59:17;0.40;99.90
22696;DHT22;11515;54.326;10.184;2022-11-20T03:01:42;0.40;99.90
22696;DHT22;11515;54.326;10.184;2022-11-20T03:04:08;0.40;99.90
22696;DHT22;11515;54.326;10.184;2022-11-20T03:06:34;0.40;99.90
22696;DHT22;11515;54.326;10.184;2022-11-20T03:09:00;0.40;99.90
22696;DHT22;11515;54.326;10.184;2022-11-20T03:11:29;0.30;99.90
22696;DHT22;11515;54.326;10.184;2022-11-20T03:13:54;0.40;99.90
22696;DHT22;11515;54.326;10.184;2022-11-20T03:16:22;0.30;99.90
22696;DHT22;11515;54.326;10.184;2022-11-20T03:18:48;0.30;99.90
22696;DHT22;11515;54.326;10.184;2022-11-20T03:21:14;0.30;99.90
22696;DHT22;11515;54.326;10.184;2022-11-20T03:23:40;0.30;99.90
22696;DHT22;11515;54.326;10.184;2022-11-20T03:26:18;0.30;99.90
22696;DHT22;11515;54.326;10.184;2022-11-20T03:28:51;0.30;99.90
22696;DHT22;11515;54.326;10.184;2022-11-20T03:31:19;0.30;99.90
22696;DHT22;11515;54.326;10.184;2022-11-20T03:33:45;0.30;99.90
22696;DHT22;11515;54.326;10.184;2022-11-20T03:36:13;0.30;99.90
22696;DHT22;11515;54.326;10.184;2022-11-20T03:38:40;0.30;99.90
22696;DHT22;11515;54.326;10.184;2022-11-20T03:41:08;0.30;99.90
22696;DHT22;11515;54.326;10.184;2022-11-20T03:43:34;0.30;99.90
22696;DHT22;11515;54.326;10.184;2022-11-20T03:46:00;0.30;99.90
22696;DHT22;11515;54.326;10.184;2022-11-20T03:48:26;0.30;99.90
22696;DHT22;11515;54.326;10.184;2022-11-20T03:53:39;0.30;99.90
22696;DHT22;11515;54.326;10.184;2022-11-20T03:56:06;0.30;99.90
22696;DHT22;11515;54.326;10.184;2022-11-20T03:58:33;0.30;99.90
22696;DHT22;11515;54.326;10.184;2022-11-20T04:01:05;0.30;99.90
22696;DHT22;11515;54.326;10.184;2022-11-20T04:03:31;0.30;99.90
22696;DHT22;11515;54.326;10.184;2022-11-20T04:06:05;0.20;99.90
22696;DHT22;11515;54.326;10.184;2022-11-20T04:08:31;0.30;99.90
22696;DHT22;11515;54.326;10.184;2022-11-20T04:11:09;0.20;99.90
22696;DHT22;11515;54.326;10.184;2022-11-20T04:13:34;0.20;99.90
22696;DHT22;11515;54.326;10.184;2022-11-20T04:16:00;0.20;99.90
22696;DHT22;11515;54.326;10.184;2022-11-20T04:18:26;0.30;99.90
22696;DHT22;11515;54.326;10.184;2022-11-20T04:20:51;0.30;99.90
22696;DHT22;11515;54.326;10.184;2022-11-20T04:23:17;0.30;99.90
22696;DHT22;11515;54.326;10.184;2022-11-20T04:25:43;0.20;99.90
22696;DHT22;11515;54.326;10.184;2022-11-20T04:28:08;0.20;99.90
22696;DHT22;11515;54.326;10.184;2022-11-20T04:30:34;0.30;99.90
22696;DHT22;11515;54.326;10.184;2022-11-20T04:33:00;0.20;99.90
22696;DHT22;11515;54.326;10.184;2022-11-20T04:35:25;0.30;99.90
22696;DHT22;11515;54.326;10.184;2022-11-20T04:37:51;0.20;99.90
22696;DHT22;11515;54.326;10.184;2022-11-20T04:40:17;0.20;99.90
22696;DHT22;11515;54.326;10.184;2022-11-20T04:42:43;0.20;99.90
22696;DHT22;11515;54.326;10.184;2022-11-20T04:45:08;0.30;99.90
22696;DHT22;11515;54.326;10.184;2022-11-20T04:47:34;0.30;99.90
22696;DHT22;11515;54.326;10.184;2022-11-20T04:50:00;0.20;99.90
22696;DHT22;11515;54.326;10.184;2022-11-20T04:52:25;0.20;99.90
22696;DHT22;11515;54.326;10.184;2022-11-20T04:54:51;0.20;99.90
22696;DHT22;11515;54.326;10.184;2022-11-20T04:57:18;0.30;99.90
22696;DHT22;11515;54.326;10.184;2022-11-20T04:59:44;0.30;99.90
22696;DHT22;11515;54.326;10.184;2022-11-20T05:02:10;0.30;99.90
22696;DHT22;11515;54.326;10.184;2022-11-20T05:04:35;0.30;99.90
22696;DHT22;11515;54.326;10.184;2022-11-20T05:07:02;0.30;99.90
22696;DHT22;11515;54.326;10.184;2022-11-20T05:09:30;0.30;99.90
22696;DHT22;11515;54.326;10.184;2022-11-20T05:11:56;0.30;99.90
22696;DHT22;11515;54.326;10.184;2022-11-20T05:14:22;0.30;99.90
22696;DHT22;11515;54.326;10.184;2022-11-20T05:16:48;0.30;99.90
22696;DHT22;11515;54.326;10.184;2022-11-20T05:19:13;0.30;99.90
22696;DHT22;11515;54.326;10.184;2022-11-20T05:21:39;0.30;99.90
22696;DHT22;11515;54.326;10.184;2022-11-20T05:24:05;0.30;99.90
22696;DHT22;11515;54.326;10.184;2022-11-20T05:26:31;0.30;99.90
22696;DHT22;11515;54.326;10.184;2022-11-20T05:29:00;0.30;99.90
22696;DHT22;11515;54.326;10.184;2022-11-20T05:31:26;0.30;99.90
22696;DHT22;11515;54.326;10.184;2022-11-20T05:33:52;0.20;99.90
22696;DHT22;11515;54.326;10.184;2022-11-20T05:36:17;0.20;99.90
22696;DHT22;11515;54.326;10.184;2022-11-20T05:38:43;0.20;99.90
22696;DHT22;11515;54.326;10.184;2022-11-20T05:41:19;0.20;99.90
22696;DHT22;11515;54.326;10.184;2022-11-20T05:43:49;0.30;99.90
22696;DHT22;11515;54.326;10.184;2022-11-20T05:46:17;0.20;99.90
22696;DHT22;11515;54.326;10.184;2022-11-20T05:48:44;0.20;99.90
22696;DHT22;11515;54.326;10.184;2022-11-20T05:51:12;0.30;99.90
22696;DHT22;11515;54.326;10.184;2022-11-20T05:53:38;0.20;99.90
22696;DHT22;11515;54.326;10.184;2022-11-20T05:56:10;0.30;99.90
22696;DHT22;11515;54.326;10.184;2022-11-20T05:58:37;0.30;99.90
22696;DHT22;11515;54.326;10.184;2022-11-20T06:03:35;0.30;99.90
22696;DHT22;11515;54.326;10.184;2022-11-20T06:06:02;0.30;99.90
22696;DHT22;11515;54.326;10.184;2022-11-20T06:08:29;0.30;99.90
22696;DHT22;11515;54.326;10.184;2022-11-20T06:10:55;0.30;99.90
22696;DHT22;11515;54.326;10.184;2022-11-20T06:13:20;0.20;99.90
22696;DHT22;11515;54.326;10.184;2022-11-20T06:15:53;0.20;99.90
22696;DHT22;11515;54.326;10.184;2022-11-20T06:18:19;0.30;99.90
22696;DHT22;11515;54.326;10.184;2022-11-20T06:20:45;0.10;99.90
22696;DHT22;11515;54.326;10.184;2022-11-20T06:23:11;0.30;99.90
22696;DHT22;11515;54.326;10.184;2022-11-20T06:25:38;0.30;99.90
22696;DHT22;11515;54.326;10.184;2022-11-20T06:28:04;0.20;99.90
22696;DHT22;11515;54.326;10.184;2022-11-20T06:30:30;0.20;99.90
22696;DHT22;11515;54.326;10.184;2022-11-20T06:32:55;0.20;99.90
22696;DHT22;11515;54.326;10.184;2022-11-20T06:35:21;0.10;99.90
22696;DHT22;11515;54.326;10.184;2022-11-20T06:37:46;0.10;99.90
22696;DHT22;11515;54.326;10.184;2022-11-20T06:40:12;0.10;99.90
22696;DHT22;11515;54.326;10.184;2022-11-20T06:42:38;0.10;99.90
22696;DHT22;11515;54.326;10.184;2022-11-20T06:45:04;0.20;99.90
22696;DHT22;11515;54.326;10.184;2022-11-20T06:47:29;0.20;99.90
22696;DHT22;11515;54.326;10.184;2022-11-20T06:49:55;0.20;99.90
22696;DHT22;11515;54.326;10.184;2022-11-20T06:52:21;0.20;99.90
22696;DHT22;11515;54.326;10.184;2022-11-20T06:54:47;0.20;99.90
22696;DHT22;11515;54.326;10.184;2022-11-20T06:57:12;0.20;99.90
22696;DHT22;11515;54.326;10.184;2022-11-20T06:59:38;0.20;99.90
22696;DHT22;11515;54.326;10.184;2022-11-20T07:02:03;0.20;99.90
22696;DHT22;11515;54.326;10.184;2022-11-20T07:04:29;0.20;99.90
22696;DHT22;11515;54.326;10.184;2022-11-20T07:06:55;0.20;99.90
22696;DHT22;11515;54.326;10.184;2022-11-20T07:09:20;0.20;99.90
22696;DHT22;11515;54.326;10.184;2022-11-20T07:11:46;0.20;99.90
22696;DHT22;11515;54.326;10.184;2022-11-20T07:14:11;0.20;99.90
22696;DHT22;11515;54.326;10.184;2022-11-20T07:16:37;0.20;99.90
22696;DHT22;11515;54.326;10.184;2022-11-20T07:19:03;0.10;99.90
22696;DHT22;11515;54.326;10.184;2022-11-20T07:21:28;0.20;99.90
22696;DHT22;11515;54.326;10.184;2022-11-20T07:23:54;0.20;99.90
22696;DHT22;11515;54.326;10.184;2022-11-20T07:26:20;0.30;99.90
22696;DHT22;11515;54.326;10.184;2022-11-20T07:28:46;0.30;99.90
22696;DHT22;11515;54.326;10.184;2022-11-20T07:31:11;0.40;99.90
22696;DHT22;11515;54.326;10.184;2022-11-20T07:33:38;0.40;99.90
22696;DHT22;11515;54.326;10.184;2022-11-20T07:36:04;0.40;99.90
22696;DHT22;11515;54.326;10.184;2022-11-20T07:38:30;0.40;99.90
22696;DHT22;11515;54.326;10.184;2022-11-20T07:40:56;0.40;99.90
22696;DHT22;11515;54.326;10.184;2022-11-20T07:43:23;0.30;99.90
22696;DHT22;11515;54.326;10.184;2022-11-20T07:45:49;0.50;99.90
22696;DHT22;11515;54.326;10.184;2022-11-20T07:48:15;0.50;99.90
22696;DHT22;11515;54.326;10.184;2022-11-20T07:50:41;0.60;99.90
22696;DHT22;11515;54.326;10.184;2022-11-20T07:53:06;0.60;99.90
22696;DHT22;11515;54.326;10.184;2022-11-20T07:55:32;0.60;99.90
22696;DHT22;11515;54.326;10.184;2022-11-20T07:57:58;0.50;99.90
22696;DHT22;11515;54.326;10.184;2022-11-20T08:00:25;0.50;99.90
22696;DHT22;11515;54.326;10.184;2022-11-20T08:02:51;0.50;99.90
22696;DHT22;11515;54.326;10.184;2022-11-20T08:05:17;0.50;99.90
22696;DHT22;11515;54.326;10.184;2022-11-20T08:07:43;0.40;99.90
22696;DHT22;11515;54.326;10.184;2022-11-20T08:10:11;0.50;99.90
22696;DHT22;11515;54.326;10.184;2022-11-20T08:12:46;0.50;99.90
22696;DHT22;11515;54.326;10.184;2022-11-20T08:15:31;0.60;99.90
22696;DHT22;11515;54.326;10.184;2022-11-20T08:18:08;0.60;99.90
22696;DHT22;11515;54.326;10.184;2022-11-20T08:20:35;0.50;99.90
22696;DHT22;11515;54.326;10.184;2022-11-20T08:23:02;0.50;99.90
22696;DHT22;11515;54.326;10.184;2022-11-20T08:25:32;0.50;99.90
22696;DHT22;11515;54.326;10.184;2022-11-20T08:28:05;0.40;99.90
22696;DHT22;11515;54.326;10.184;2022-11-20T08:30:31;0.40;99.90
22696;DHT22;11515;54.326;10.184;2022-11-20T08:33:04;0.30;99.90
22696;DHT22;11515;54.326;10.184;2022-11-20T08:35:33;0.20;99.90
22696;DHT22;11515;54.326;10.184;2022-11-20T08:38:00;0.20;99.90
22696;DHT22;11515;54.326;10.184;2022-11-20T08:40:26;0.30;99.90
22696;DHT22;11515;54.326;10.184;2022-11-20T08:42:51;0.70;99.90
22696;DHT22;11515;54.326;10.184;2022-11-20T08:45:18;1.20;99.90
22696;DHT22;11515;54.326;10.184;2022-11-20T08:47:44;1.70;99.90
22696;DHT22;11515;54.326;10.184;2022-11-20T08:50:13;2.00;99.90
22696;DHT22;11515;54.326;10.184;2022-11-20T08:52:39;2.10;99.90
22696;DHT22;11515;54.326;10.184;2022-11-20T08:55:05;2.30;99.90
22696;DHT22;11515;54.326;10.184;2022-11-20T08:57:35;2.40;99.90
22696;DHT22;11515;54.326;10.184;2022-11-20T09:00:02;2.20;99.90
22696;DHT22;11515;54.326;10.184;2022-11-20T09:02:35;2.40;99.90
22696;DHT22;11515;54.326;10.184;2022-11-20T09:05:00;2.70;99.90
22696;DHT22;11515;54.326;10.184;2022-11-20T09:07:28;3.00;99.90
22696;DHT22;11515;54.326;10.184;2022-11-20T09:09:53;3.10;99.90
22696;DHT22;11515;54.326;10.184;2022-11-20T09:12:19;3.10;99.90
22696;DHT22;11515;54.326;10.184;2022-11-20T09:14:45;3.00;99.90
22696;DHT22;11515;54.326;10.184;2022-11-20T09:17:11;2.70;99.90
22696;DHT22;11515;54.326;10.184;2022-11-20T09:19:40;2.60;99.90
22696;DHT22;11515;54.326;10.184;2022-11-20T09:22:06;2.40;99.90
22696;DHT22;11515;54.326;10.184;2022-11-20T09:24:31;2.40;99.90
22696;DHT22;11515;54.326;10.184;2022-11-20T09:26:57;2.50;99.90
22696;DHT22;11515;54.326;10.184;2022-11-20T09:29:22;2.70;99.90
22696;DHT22;11515;54.326;10.184;2022-11-20T09:31:48;2.90;99.90
22696;DHT22;11515;54.326;10.184;2022-11-20T09:34:14;3.00;99.90
22696;DHT22;11515;54.326;10.184;2022-11-20T09:36:39;3.00;99.90
22696;DHT22;11515;54.326;10.184;2022-11-20T09:39:05;3.00;99.90
22696;DHT22;11515;54.326;10.184;2022-11-20T09:44:47;2.80;99.90
22696;DHT22;11515;54.326;10.184;2022-11-20T09:50:36;2.60;99.90
22696;DHT22;11515;54.326;10.184;2022-11-20T09:53:42;2.60;99.90
22696;DHT22;11515;54.326;10.184;2022-11-20T09:56:11;2.60;99.90
22696;DHT22;11515;54.326;10.184;2022-11-20T09:58:47;2.70;99.90
22696;DHT22;11515;54.326;10.184;2022-11-20T10:01:17;3.00;99.90
22696;DHT22;11515;54.326;10.184;2022-11-20T10:04:01;3.10;99.90
22696;DHT22;11515;54.326;10.184;2022-11-20T10:06:39;3.10;99.90
22696;DHT22;11515;54.326;10.184;2022-11-20T10:09:16;3.40;99.90
22696;DHT22;11515;54.326;10.184;2022-11-20T10:12:17;3.70;99.90
22696;DHT22;11515;54.326;10.184;2022-11-20T10:25:24;2.40;99.90
22696;DHT22;11515;54.326;10.184;2022-11-20T10:31:04;2.10;99.90
22696;DHT22;11515;54.326;10.184;2022-11-20T10:33:39;2.20;99.90
22696;DHT22;11515;54.326;10.184;2022-11-20T10:36:33;2.40;99.90
22696;DHT22;11515;54.326;10.184;2022-11-20T10:39:07;2.60;99.90
22696;DHT22;11515;54.326;10.184;2022-11-20T10:41:45;2.80;99.90
22696;DHT22;11515;54.326;10.184;2022-11-20T10:44:19;2.90;99.90
22696;DHT22;11515;54.326;10.184;2022-11-20T10:47:19;3.00;99.90
22696;DHT22;11515;54.326;10.184;2022-11-20T10:49:52;3.00;99.90
22696;DHT22;11515;54.326;10.184;2022-11-20T10:53:39;3.00;99.90
22696;DHT22;11515;54.326;10.184;2022-11-20T10:56:50;3.10;99.90
22696;DHT22;11515;54.326;10.184;2022-11-20T10:59:10;3.30;99.90
22696;DHT22;11515;54.326;10.184;2022-11-20T11:01:42;3.50;99.90
22696;DHT22;11515;54.326;10.184;2022-11-20T11:04:39;3.60;99.90
22696;DHT22;11515;54.326;10.184;2022-11-20T11:09:48;3.60;99.90
22696;DHT22;11515;54.326;10.184;2022-11-20T11:12:14;3.40;99.90
22696;DHT22;11515;54.326;10.184;2022-11-20T11:14:48;3.40;99.90
22696;DHT22;11515;54.326;10.184;2022-11-20T11:20:04;3.60;99.90
22696;DHT22;11515;54.326;10.184;2022-11-20T11:22:34;3.50;99.90
22696;DHT22;11515;54.326;10.184;2022-11-20T11:25:00;3.50;99.90
22696;DHT22;11515;54.326;10.184;2022-11-20T11:27:26;3.50;99.90
22696;DHT22;11515;54.326;10.184;2022-11-20T11:30:24;3.30;99.90
22696;DHT22;11515;54.326;10.184;2022-11-20T11:32:48;3.30;99.90
22696;DHT22;11515;54.326;10.184;2022-11-20T11:35:45;3.40;99.90
22696;DHT22;11515;54.326;10.184;2022-11-20T11:38:19;3.80;99.90
22696;DHT22;11515;54.326;10.184;2022-11-20T11:40:46;3.90;99.90
22696;DHT22;11515;54.326;10.184;2022-11-20T11:43:31;4.10;99.90
22696;DHT22;11515;54.326;10.184;2022-11-20T11:46:35;3.70;99.90
22696;DHT22;11515;54.326;10.184;2022-11-20T11:49:16;3.60;99.90
22696;DHT22;11515;54.326;10.184;2022-11-20T11:54:23;4.20;99.90
22696;DHT22;11515;54.326;10.184;2022-11-20T11:56:49;6.00;99.90
22696;DHT22;11515;54.326;10.184;2022-11-20T12:05:43;7.10;1.00
22696;DHT22;11515;54.326;10.184;2022-11-20T12:08:26;7.10;1.00
22696;DHT22;11515;54.326;10.184;2022-11-20T12:11:11;8.30;1.00
22696;DHT22;11515;54.326;10.184;2022-11-20T12:13:47;9.60;99.90
22696;DHT22;11515;54.326;10.184;2022-11-20T12:16:15;8.70;99.90
22696;DHT22;11515;54.326;10.184;2022-11-20T12:18:43;7.80;99.90
22696;DHT22;11515;54.326;10.184;2022-11-20T12:30:00;4.40;1.00
22696;DHT22;11515;54.326;10.184;2022-11-20T12:43:32;3.40;99.90
22696;DHT22;11515;54.326;10.184;2022-11-20T12:49:42;3.30;99.90
22696;DHT22;11515;54.326;10.184;2022-11-20T12:55:36;3.30;99.90
22696;DHT22;11515;54.326;10.184;2022-11-20T12:58:22;3.20;99.90
22696;DHT22;11515;54.326;10.184;2022-11-20T13:01:37;3.20;99.90
22696;DHT22;11515;54.326;10.184;2022-11-20T13:06:47;5.20;21.60
22696;DHT22;11515;54.326;10.184;2022-11-20T13:09:17;4.90;1.00
22696;DHT22;11515;54.326;10.184;2022-11-20T13:11:50;4.50;1.00
22696;DHT22;11515;54.326;10.184;2022-11-20T13:14:42;4.00;1.00
22696;DHT22;11515;54.326;10.184;2022-11-20T13:17:19;3.50;13.80
22696;DHT22;11515;54.326;10.184;2022-11-20T13:19:53;3.10;37.90
22696;DHT22;11515;54.326;10.184;2022-11-20T13:22:28;3.10;66.40
22696;DHT22;11515;54.326;10.184;2022-11-20T13:24:54;4.80;91.60
22696;DHT22;11515;54.326;10.184;2022-11-20T13:27:22;7.60;1.00
22696;DHT22;11515;54.326;10.184;2022-11-20T13:30:17;9.80;99.90
22696;DHT22;11515;54.326;10.184;2022-11-20T13:33:03;11.10;99.90
22696;DHT22;11515;54.326;10.184;2022-11-20T13:35:32;10.20;1.00
22696;DHT22;11515;54.326;10.184;2022-11-20T13:40:28;8.90;1.00
22696;DHT22;11515;54.326;10.184;2022-11-20T13:45:59;11.40;99.90
22696;DHT22;11515;54.326;10.184;2022-11-20T13:48:32;11.60;99.90
22696;DHT22;11515;54.326;10.184;2022-11-20T14:02:00;10.70;99.90
22696;DHT22;11515;54.326;10.184;2022-11-20T14:04:30;9.40;99.90
22696;DHT22;11515;54.326;10.184;2022-11-20T14:06:58;7.70;99.90
22696;DHT22;11515;54.326;10.184;2022-11-20T14:09:32;6.60;99.90
22696;DHT22;11515;54.326;10.184;2022-11-20T14:11:58;7.00;99.90
22696;DHT22;11515;54.326;10.184;2022-11-20T14:14:25;7.60;99.90
22696;DHT22;11515;54.326;10.184;2022-11-20T14:16:52;7.70;99.90
22696;DHT22;11515;54.326;10.184;2022-11-20T14:21:49;9.00;99.90
22696;DHT22;11515;54.326;10.184;2022-11-20T14:24:20;9.70;99.90
22696;DHT22;11515;54.326;10.184;2022-11-20T14:26:46;10.00;99.90
22696;DHT22;11515;54.326;10.184;2022-11-20T14:29:17;10.20;99.90
22696;DHT22;11515;54.326;10.184;2022-11-20T14:31:45;10.50;99.90
22696;DHT22;11515;54.326;10.184;2022-11-20T14:34:21;10.50;99.90
22696;DHT22;11515;54.326;10.184;2022-11-20T14:36:48;10.30;99.90
22696;DHT22;11515;54.326;10.184;2022-11-20T14:39:21;10.20;99.90
22696;DHT22;11515;54.326;10.184;2022-11-20T14:41:51;9.80;99.90
22696;DHT22;11515;54.326;10.184;2022-11-20T14:44:17;9.30;99.90
22696;DHT22;11515;54.326;10.184;2022-11-20T14:46:45;8.60;99.90
22696;DHT22;11515;54.326;10.184;2022-11-20T14:49:11;7.50;99.90
22696;DHT22;11515;54.326;10.184;2022-11-20T14:51:39;6.20;99.90
22696;DHT22;11515;54.326;10.184;2022-11-20T14:54:20;5.00;99.90
22696;DHT22;11515;54.326;10.184;2022-11-20T14:57:27;4.00;99.90
22696;DHT22;11515;54.326;10.184;2022-11-20T15:00:17;2.90;99.90
22696;DHT22;11515;54.326;10.184;2022-11-20T15:02:48;2.20;99.90
22696;DHT22;11515;54.326;10.184;2022-11-20T15:05:15;1.40;99.90
22696;DHT22;11515;54.326;10.184;2022-11-20T15:07:44;1.00;99.90
22696;DHT22;11515;54.326;10.184;2022-11-20T15:10:21;0.70;99.90
22696;DHT22;11515;54.326;10.184;2022-11-20T15:12:53;0.60;99.90
22696;DHT22;11515;54.326;10.184;2022-11-20T15:15:35;0.40;99.90
22696;DHT22;11515;54.326;10.184;2022-11-20T15:18:02;0.10;99.90
22696;DHT22;11515;54.326;10.184;2022-11-20T15:20:33;-0.20;99.90
22696;DHT22;11515;54.326;10.184;2022-11-20T15:23:01;-0.50;99.90
22696;DHT22;11515;54.326;10.184;2022-11-20T15:25:27;-0.70;99.90
22696;DHT22;11515;54.326;10.184;2022-11-20T15:27:56;-0.90;99.90
22696;DHT22;11515;54.326;10.184;2022-11-20T15:30:22;-1.00;99.90
22696;DHT22;11515;54.326;10.184;2022-11-20T15:32:48;-1.20;99.90
22696;DHT22;11515;54.326;10.184;2022-11-20T15:35:15;-1.30;99.90
22696;DHT22;11515;54.326;10.184;2022-11-20T15:37:41;-1.40;99.90
22696;DHT22;11515;54.326;10.184;2022-11-20T15:40:08;-1.30;99.90
22696;DHT22;11515;54.326;10.184;2022-11-20T15:42:34;-1.20;99.90
22696;DHT22;11515;54.326;10.184;2022-11-20T15:45:00;-1.20;99.90
22696;DHT22;11515;54.326;10.184;2022-11-20T15:47:29;-1.20;99.90
22696;DHT22;11515;54.326;10.184;2022-11-20T15:49:55;-1.30;99.90
22696;DHT22;11515;54.326;10.184;2022-11-20T15:52:21;-1.40;99.90
22696;DHT22;11515;54.326;10.184;2022-11-20T15:54:47;-1.30;99.90
22696;DHT22;11515;54.326;10.184;2022-11-20T15:57:16;-1.30;99.90
22696;DHT22;11515;54.326;10.184;2022-11-20T15:59:41;-1.50;99.90
22696;DHT22;11515;54.326;10.184;2022-11-20T16:02:15;-1.70;99.90
22696;DHT22;11515;54.326;10.184;2022-11-20T16:04:41;-1.80;99.90
22696;DHT22;11515;54.326;10.184;2022-11-20T16:07:07;-1.80;99.90
22696;DHT22;11515;54.326;10.184;2022-11-20T16:09:33;-1.70;99.90
22696;DHT22;11515;54.326;10.184;2022-11-20T16:11:59;-1.40;99.90
22696;DHT22;11515;54.326;10.184;2022-11-20T16:14:25;-1.20;99.90
22696;DHT22;11515;54.326;10.184;2022-11-20T16:17:10;-1.20;99.90
22696;DHT22;11515;54.326;10.184;2022-11-20T16:19:36;-1.10;99.90
22696;DHT22;11515;54.326;10.184;2022-11-20T16:22:02;-1.10;99.90
22696;DHT22;11515;54.326;10.184;2022-11-20T16:24:28;-1.00;99.90
22696;DHT22;11515;54.326;10.184;2022-11-20T16:26:54;-1.00;99.90
22696;DHT22;11515;54.326;10.184;2022-11-20T16:29:20;-0.80;99.90
22696;DHT22;11515;54.326;10.184;2022-11-20T16:31:46;-0.60;99.90
22696;DHT22;11515;54.326;10.184;2022-11-20T16:34:12;-0.50;99.90
22696;DHT22;11515;54.326;10.184;2022-11-20T16:36:41;-0.40;99.90
22696;DHT22;11515;54.326;10.184;2022-11-20T16:39:12;-0.30;99.90
22696;DHT22;11515;54.326;10.184;2022-11-20T16:41:38;-0.20;99.90
22696;DHT22;11515;54.326;10.184;2022-11-20T16:44:09;-0.20;99.90
22696;DHT22;11515;54.326;10.184;2022-11-20T16:46:35;-0.10;99.90
22696;DHT22;11515;54.326;10.184;2022-11-20T16:49:06;0.00;99.90
22696;DHT22;11515;54.326;10.184;2022-11-20T16:51:35;-0.10;99.90
22696;DHT22;11515;54.326;10.184;2022-11-20T16:54:04;-0.10;99.90
22696;DHT22;11515;54.326;10.184;2022-11-20T16:56:30;-0.10;99.90
22696;DHT22;11515;54.326;10.184;2022-11-20T16:58:57;-0.10;99.90
22696;DHT22;11515;54.326;10.184;2022-11-20T17:01:24;0.00;99.90
22696;DHT22;11515;54.326;10.184;2022-11-20T17:04:04;0.00;99.90
22696;DHT22;11515;54.326;10.184;2022-11-20T17:06:32;0.00;99.90
22696;DHT22;11515;54.326;10.184;2022-11-20T17:08:58;0.00;99.90
22696;DHT22;11515;54.326;10.184;2022-11-20T17:11:25;0.10;99.90
22696;DHT22;11515;54.326;10.184;2022-11-20T17:13:51;0.00;99.90
22696;DHT22;11515;54.326;10.184;2022-11-20T17:16:22;-0.10;99.90